createdAt,value
2022-09-18T00:01:28.564Z,98775.94
2022-09-18T00:04:05.257Z,98771.09
2022-09-18T00:06:41.451Z,98771.52
2022-09-18T00:09:16.686Z,98771.52
2022-09-18T00:11:51.420Z,98773.75
2022-09-18T00:14:25.566Z,98758.74
2022-09-18T00:16:58.576Z,98756.98
2022-09-18T00:19:31.483Z,98760.55
2022-09-18T00:22:04.497Z,98761.02
2022-09-18T00:24:37.976Z,98759.25
2022-09-18T00:27:10.609Z,98745.55
2022-09-18T00:29:44.919Z,98751.31
2022-09-18T00:32:17.880Z,98737.22
2022-09-18T00:34:50.625Z,98734.13
2022-09-18T00:37:23.635Z,98742.09
2022-09-18T00:39:56.538Z,98743.01
2022-09-18T00:42:29.289Z,98732.84
2022-09-18T00:45:03.738Z,98729.32
2022-09-18T00:47:42.281Z,98733.30
2022-09-18T00:50:19.442Z,98733.77
2022-09-18T00:52:58.966Z,98734.20
2022-09-18T00:55:39.421Z,98734.66
2022-09-18T00:58:13.029Z,98724.94
2022-09-18T01:00:46.152Z,98725.84
2022-09-18T01:03:19.071Z,98720.96
2022-09-18T01:06:05.491Z,98723.20
2022-09-18T01:08:56.456Z,98713.48
2022-09-18T01:12:08.006Z,98707.31
2022-09-18T01:14:50.288Z,98694.95
2022-09-18T01:17:39.777Z,98699.84
2022-09-18T01:20:32.134Z,98694.09
2022-09-18T01:23:24.487Z,98695.83
2022-09-18T01:26:29.367Z,98694.08
2022-09-18T01:29:32.497Z,98688.78
2022-09-18T01:32:19.293Z,98685.23
2022-09-18T01:35:14.031Z,98691.89
2022-09-18T01:37:47.507Z,98678.66
2022-09-18T01:40:43.193Z,98671.12
2022-09-18T01:43:19.038Z,98667.14
2022-09-18T01:45:56.143Z,98662.29
2022-09-18T01:48:37.746Z,98665.81
2022-09-18T01:51:19.819Z,98662.72
2022-09-18T01:54:01.428Z,98664.05
2022-09-18T01:56:41.074Z,98652.58
2022-09-18T01:59:18.676Z,98637.14
2022-09-18T02:01:58.839Z,98619.02
2022-09-18T02:04:34.329Z,98611.52
2022-09-18T02:07:17.917Z,98600.93
2022-09-18T02:09:52.466Z,98620.33
2022-09-18T02:12:28.243Z,98626.09
2022-09-18T02:15:06.418Z,98624.77
2022-09-18T02:17:58.076Z,98626.09
2022-09-18T02:20:33.403Z,98623.89
2022-09-18T02:23:09.089Z,98628.28
2022-09-18T02:25:55.732Z,98623.42
2022-09-18T02:28:30.373Z,98605.31
2022-09-18T02:31:02.379Z,98594.25
2022-09-18T02:33:38.983Z,98581.47
2022-09-18T02:36:37.627Z,98585.45
2022-09-18T02:39:49.140Z,98584.13
2022-09-18T02:42:53.003Z,98587.66
2022-09-18T02:45:56.408Z,98596.47
2022-09-18T02:48:55.041Z,98597.36
2022-09-18T02:51:55.123Z,98602.65
2022-09-18T02:54:44.869Z,98607.50
2022-09-18T02:57:43.213Z,98598.23
2022-09-18T03:00:19.025Z,98611.02
2022-09-18T03:02:53.483Z,98615.92
2022-09-18T03:05:30.530Z,98616.80
2022-09-18T03:08:05.546Z,98602.69
2022-09-18T03:10:39.175Z,98610.19
2022-09-18T03:13:13.131Z,98592.12
2022-09-18T03:15:46.242Z,98592.58
2022-09-18T03:18:21.331Z,98591.27
2022-09-18T03:20:54.275Z,98578.91
2022-09-18T03:23:27.383Z,98578.46
2022-09-18T03:26:03.729Z,98576.72
2022-09-18T03:28:38.153Z,98565.67
2022-09-18T03:31:12.303Z,98578.45
2022-09-18T03:33:45.115Z,98582.42
2022-09-18T03:36:18.849Z,98578.45
2022-09-18T03:38:52.002Z,98569.19
2022-09-18T03:41:25.320Z,98574.47
2022-09-18T03:43:58.617Z,98566.09
2022-09-18T03:46:31.596Z,98559.44
2022-09-18T03:49:06.425Z,98547.08
2022-09-18T03:51:39.830Z,98556.75
2022-09-18T03:54:14.843Z,98558.95
2022-09-18T03:56:58.443Z,98567.75
2022-09-18T03:59:35.744Z,98547.38
2022-09-18T04:02:14.093Z,98540.72
2022-09-18T04:04:53.687Z,98526.98
2022-09-18T04:07:43.723Z,98529.19
2022-09-18T04:10:34.855Z,98518.58
2022-09-18T04:13:08.662Z,98513.23
2022-09-18T04:15:42.257Z,98519.39
2022-09-18T04:18:15.170Z,98524.20
2022-09-18T04:20:48.412Z,98528.60
2022-09-18T04:23:21.467Z,98530.33
2022-09-18T04:25:54.523Z,98545.78
2022-09-18T04:28:28.990Z,98548.39
2022-09-18T04:31:02.911Z,98547.45
2022-09-18T04:33:36.558Z,98541.22
2022-09-18T04:36:11.228Z,98542.48
2022-09-18T04:38:44.481Z,98545.96
2022-09-18T04:41:17.350Z,98534.39
2022-09-18T04:43:50.567Z,98536.98
2022-09-18T04:46:24.247Z,98534.72
2022-09-18T04:48:57.255Z,98523.13
2022-09-18T04:51:32.353Z,98514.22
2022-09-18T04:54:05.888Z,98507.51
2022-09-18T04:56:41.455Z,98507.86
2022-09-18T04:59:13.764Z,98503.41
2022-09-18T05:01:48.311Z,98504.70
2022-09-18T05:04:22.510Z,98495.38
2022-09-18T05:07:04.726Z,98489.55
2022-09-18T05:09:39.751Z,98499.56
2022-09-18T05:12:13.844Z,98504.72
2022-09-18T05:14:47.043Z,98503.64
2022-09-18T05:17:20.359Z,98497.22
2022-09-18T05:20:08.340Z,98490.73
2022-09-18T05:22:47.457Z,98509.07
2022-09-18T05:25:21.947Z,98510.27
2022-09-18T05:28:00.419Z,98503.14
2022-09-18T05:30:47.241Z,98500.45
2022-09-18T05:33:20.119Z,98504.36
2022-09-18T05:35:56.309Z,98517.16
2022-09-18T05:38:29.364Z,98523.81
2022-09-18T05:41:04.086Z,98540.66
2022-09-18T05:43:37.224Z,98553.91
2022-09-18T05:46:14.725Z,98569.86
2022-09-18T05:48:51.510Z,98571.62
2022-09-18T05:51:24.263Z,98576.43
2022-09-18T05:53:57.293Z,98575.95
2022-09-18T05:56:43.876Z,98574.57
2022-09-18T05:59:17.174Z,98571.83
2022-09-18T06:01:51.790Z,98578.41
2022-09-18T06:04:27.412Z,98578.30
2022-09-18T06:07:02.630Z,98582.17
2022-09-18T06:09:35.692Z,98588.77
2022-09-18T06:12:09.501Z,98605.09
2022-09-18T06:14:42.637Z,98601.08
2022-09-18T06:17:15.784Z,98632.95
2022-09-18T06:19:50.713Z,98680.38
2022-09-18T06:22:23.434Z,98719.49
2022-09-18T06:24:56.944Z,98714.19
2022-09-18T06:27:31.984Z,98720.92
2022-09-18T06:30:07.043Z,98687.78
2022-09-18T06:32:40.574Z,98668.38
2022-09-18T06:35:14.274Z,98640.93
2022-09-18T06:37:47.264Z,98592.05
2022-09-18T06:40:32.344Z,98532.88
2022-09-18T06:43:16.250Z,98504.74
2022-09-18T06:45:56.104Z,98496.89
2022-09-18T06:48:30.575Z,98507.38
2022-09-18T06:51:05.194Z,98507.38
2022-09-18T06:53:41.276Z,98520.56
2022-09-18T06:56:14.636Z,98537.25
2022-09-18T06:58:47.640Z,98555.30
2022-09-18T07:01:23.606Z,98563.16
2022-09-18T07:03:58.453Z,98560.87
2022-09-18T07:06:33.154Z,98563.53
2022-09-18T07:09:06.015Z,98582.20
2022-09-18T07:11:55.618Z,98637.23
2022-09-18T07:14:30.161Z,98630.17
2022-09-18T07:17:04.896Z,98614.22
2022-09-18T07:19:38.756Z,98546.41
2022-09-18T07:22:12.255Z,98546.91
2022-09-18T07:24:46.713Z,98579.76
2022-09-18T07:27:19.685Z,98575.30
2022-09-18T07:29:54.199Z,98590.23
2022-09-18T07:32:27.979Z,98591.34
2022-09-18T07:35:01.763Z,98575.56
2022-09-18T07:37:37.000Z,98571.70
2022-09-18T07:40:12.965Z,98578.50
2022-09-18T07:43:04.485Z,98581.81
2022-09-18T07:45:40.085Z,98571.73
2022-09-18T07:48:14.122Z,98557.72
2022-09-18T07:50:48.932Z,98551.70
2022-09-18T07:53:21.905Z,98539.39
2022-09-18T07:55:57.667Z,98540.09
2022-09-18T07:58:30.612Z,98547.98
2022-09-18T08:01:06.618Z,98532.84
2022-09-18T08:03:41.883Z,98526.59
2022-09-18T08:06:17.964Z,98510.13
2022-09-18T08:09:01.829Z,98512.71
2022-09-18T08:11:55.539Z,98521.80
2022-09-18T08:14:30.382Z,98535.76
2022-09-18T08:17:21.530Z,98539.00
2022-09-18T08:20:10.691Z,98533.10
2022-09-18T08:22:51.349Z,98526.05
2022-09-18T08:25:27.999Z,98527.15
2022-09-18T08:28:03.671Z,98534.89
2022-09-18T08:30:43.492Z,98537.69
2022-09-18T08:33:18.454Z,98521.16
2022-09-18T08:35:52.767Z,98495.64
2022-09-18T08:38:37.841Z,98495.03
2022-09-18T08:42:03.878Z,98512.65
2022-09-18T08:44:46.887Z,98534.74
2022-09-18T08:47:33.117Z,98551.19
2022-09-18T08:50:32.878Z,98562.61
2022-09-18T08:53:09.381Z,98556.59
2022-09-18T08:55:59.371Z,98554.51
2022-09-18T08:59:02.987Z,98554.17
2022-09-18T09:01:53.880Z,98549.63
2022-09-18T09:04:29.946Z,98551.13
2022-09-18T09:07:26.196Z,98555.20
2022-09-18T09:10:08.152Z,98551.77
2022-09-18T09:13:37.564Z,98554.93
2022-09-18T09:16:39.060Z,98560.47
2022-09-18T09:19:32.788Z,98551.25
2022-09-18T09:22:24.327Z,98545.66
2022-09-18T09:25:35.999Z,98534.75
2022-09-18T09:28:24.232Z,98542.14
2022-09-18T09:31:08.413Z,98539.27
2022-09-18T09:34:06.979Z,98543.47
2022-09-18T09:36:53.491Z,98550.05
2022-09-18T09:39:40.025Z,98545.08
2022-09-18T09:42:38.883Z,98551.14
2022-09-18T09:45:31.531Z,98541.72
2022-09-18T09:48:29.075Z,98542.03
2022-09-18T09:51:24.805Z,98545.47
2022-09-18T09:54:00.315Z,98536.05
2022-09-18T09:57:01.613Z,98544.40
2022-09-18T10:00:01.834Z,98542.05
2022-09-18T10:03:18.384Z,98544.13
2022-09-18T10:06:00.027Z,98531.82
2022-09-18T10:08:47.109Z,98527.66
2022-09-18T10:11:20.599Z,98521.79
2022-09-18T10:14:05.715Z,98517.19
2022-09-18T10:16:46.452Z,98522.44
2022-09-18T10:19:22.351Z,98520.92
2022-09-18T10:21:56.392Z,98522.55
2022-09-18T10:24:42.678Z,98518.41
2022-09-18T10:27:17.524Z,98519.53
2022-09-18T10:29:50.506Z,98516.18
2022-09-18T10:32:37.974Z,98510.71
2022-09-18T10:35:42.770Z,98514.52
2022-09-18T10:38:34.463Z,98514.23
2022-09-18T10:41:28.619Z,98505.16
2022-09-18T10:44:23.455Z,98508.20
2022-09-18T10:47:02.815Z,98507.48
2022-09-18T10:49:51.258Z,98513.95
2022-09-18T10:52:45.015Z,98512.91
2022-09-18T10:55:28.684Z,98507.97
2022-09-18T10:58:16.122Z,98505.97
2022-09-18T11:01:08.532Z,98501.41
2022-09-18T11:04:03.993Z,98492.75
2022-09-18T11:06:39.948Z,98501.05
2022-09-18T11:09:41.206Z,98494.77
2022-09-18T11:12:24.293Z,98487.59
2022-09-18T11:15:11.850Z,98489.76
2022-09-18T11:17:52.803Z,98495.38
2022-09-18T11:20:34.699Z,98481.38
2022-09-18T11:23:35.799Z,98477.64
2022-09-18T11:26:31.588Z,98474.84
2022-09-18T11:29:27.834Z,98480.94
2022-09-18T11:32:17.964Z,98481.10
2022-09-18T11:35:01.574Z,98476.89
2022-09-18T11:37:38.324Z,98471.33
2022-09-18T11:40:29.194Z,98466.70
2022-09-18T11:43:05.281Z,98475.09
2022-09-18T11:45:49.370Z,98462.03
2022-09-18T11:48:42.263Z,98462.38
2022-09-18T11:51:24.582Z,98457.27
2022-09-18T11:54:07.359Z,98452.60
2022-09-18T11:56:52.596Z,98450.37
2022-09-18T11:59:38.481Z,98436.62
2022-09-18T12:02:39.804Z,98443.54
2022-09-18T12:05:23.736Z,98436.63
2022-09-18T12:08:00.261Z,98433.33
2022-09-18T12:11:05.080Z,98429.23
2022-09-18T12:13:45.944Z,98430.52
2022-09-18T12:16:30.029Z,98431.85
2022-09-18T12:19:10.940Z,98435.81
2022-09-18T12:22:15.109Z,98431.58
2022-09-18T12:24:48.502Z,98428.63
2022-09-18T12:27:55.921Z,98406.18
2022-09-18T12:30:39.991Z,98415.98
2022-09-18T12:33:30.140Z,98406.45
2022-09-18T12:36:06.677Z,98405.77
2022-09-18T12:39:13.667Z,98397.19
2022-09-18T12:42:00.562Z,98404.42
2022-09-18T12:44:45.057Z,98398.73
2022-09-18T12:47:56.186Z,98387.86
2022-09-18T12:51:05.609Z,98392.34
2022-09-18T12:54:06.160Z,98392.48
2022-09-18T12:56:51.504Z,98384.25
2022-09-18T12:59:53.185Z,98385.66
2022-09-18T13:02:51.330Z,98383.28
2022-09-18T13:05:45.870Z,98382.70
2022-09-18T13:08:50.025Z,98380.53
2022-09-18T13:11:44.340Z,98388.28
2022-09-18T13:14:36.767Z,98386.05
2022-09-18T13:17:18.321Z,98386.05
2022-09-18T13:20:06.151Z,98378.61
2022-09-18T13:22:39.785Z,98381.36
2022-09-18T13:25:34.360Z,98386.80
2022-09-18T13:28:13.771Z,98380.16
2022-09-18T13:30:46.840Z,98379.78
2022-09-18T13:33:27.772Z,98387.01
2022-09-18T13:36:01.333Z,98387.48
2022-09-18T13:38:35.855Z,98383.19
2022-09-18T13:41:12.616Z,98380.19
2022-09-18T13:43:57.350Z,98388.77
2022-09-18T13:46:40.069Z,98380.71
2022-09-18T13:49:32.205Z,98381.26
2022-09-18T13:52:38.294Z,98375.65
2022-09-18T13:55:18.469Z,98380.19
2022-09-18T13:57:52.663Z,98385.18
2022-09-18T14:00:28.328Z,98384.22
2022-09-18T14:03:17.471Z,98378.41
2022-09-18T14:05:50.774Z,98369.59
2022-09-18T14:08:28.829Z,98374.65
2022-09-18T14:11:15.509Z,98372.83
2022-09-18T14:13:54.620Z,98371.55
2022-09-18T14:16:36.120Z,98370.41
2022-09-18T14:19:33.774Z,98377.80
2022-09-18T14:22:26.628Z,98368.13
2022-09-18T14:25:03.708Z,98372.01
2022-09-18T14:27:52.290Z,98369.17
2022-09-18T14:30:30.887Z,98372.05
2022-09-18T14:33:19.781Z,98370.91
2022-09-18T14:36:05.015Z,98368.91
2022-09-18T14:38:41.168Z,98369.30
2022-09-18T14:41:26.230Z,98374.25
2022-09-18T14:44:04.435Z,98372.91
2022-09-18T14:46:37.697Z,98372.41
2022-09-18T14:49:15.271Z,98371.42
2022-09-18T14:52:03.135Z,98374.79
2022-09-18T14:54:26.280Z,98373.69
2022-09-18T14:57:02.422Z,98374.03
2022-09-18T14:59:35.565Z,98378.80
2022-09-18T15:02:33.427Z,98377.31
2022-09-18T15:05:13.624Z,98372.58
2022-09-18T15:07:53.125Z,98379.12
2022-09-18T15:10:28.518Z,98379.35
2022-09-18T15:13:04.570Z,98379.55
2022-09-18T15:15:40.354Z,98386.89
2022-09-18T15:18:24.767Z,98381.30
2022-09-18T15:21:02.356Z,98381.94
2022-09-18T15:23:39.660Z,98383.98
2022-09-18T15:26:15.884Z,98387.80
2022-09-18T15:28:51.814Z,98381.39
2022-09-18T15:31:32.843Z,98382.19
2022-09-18T15:34:22.068Z,98376.73
2022-09-18T15:37:04.203Z,98377.91
2022-09-18T15:39:41.576Z,98380.88
2022-09-18T15:42:21.446Z,98392.31
2022-09-18T15:45:04.446Z,98393.05
2022-09-18T15:47:41.469Z,98390.63
2022-09-18T15:50:21.811Z,98387.73
2022-09-18T15:53:01.700Z,98387.13
2022-09-18T15:55:57.276Z,98378.92
2022-09-18T15:58:37.664Z,98381.37
2022-09-18T16:01:22.704Z,98388.72
2022-09-18T16:04:18.317Z,98392.02
2022-09-18T16:07:00.560Z,98386.41
2022-09-18T16:09:46.823Z,98391.03
2022-09-18T16:12:36.010Z,98396.09
2022-09-18T16:15:22.261Z,98396.66
2022-09-18T16:18:04.489Z,98399.42
2022-09-18T16:20:42.772Z,98398.17
2022-09-18T16:23:38.550Z,98396.47
2022-09-18T16:26:37.851Z,98401.93
2022-09-18T16:29:24.126Z,98412.19
2022-09-18T16:31:57.850Z,98410.94
2022-09-18T16:34:31.437Z,98407.03
2022-09-18T16:37:05.971Z,98411.50
2022-09-18T16:39:39.800Z,98422.66
2022-09-18T16:42:20.085Z,98420.98
2022-09-18T16:44:57.238Z,98425.47
2022-09-18T16:47:30.198Z,98431.33
2022-09-18T16:50:03.887Z,98429.69
2022-09-18T16:52:36.281Z,98435.93
2022-09-18T16:55:09.745Z,98430.72
2022-09-18T16:57:42.459Z,98441.48
2022-09-18T17:00:15.759Z,98438.48
2022-09-18T17:02:49.459Z,98441.19
2022-09-18T17:05:22.377Z,98443.52
2022-09-18T17:07:55.756Z,98444.55
2022-09-18T17:10:30.745Z,98449.58
2022-09-18T17:13:04.291Z,98456.38
2022-09-18T17:15:37.572Z,98454.61
2022-09-18T17:18:10.633Z,98452.50
2022-09-18T17:20:43.564Z,98456.06
2022-09-18T17:23:16.410Z,98454.42
2022-09-18T17:25:49.424Z,98450.94
2022-09-18T17:28:22.389Z,98462.63
2022-09-18T17:30:56.060Z,98464.95
2022-09-18T17:33:29.012Z,98466.83
2022-09-18T17:36:10.892Z,98472.64
2022-09-18T17:38:44.766Z,98471.81
2022-09-18T17:41:19.908Z,98474.08
2022-09-18T17:43:53.958Z,98475.02
2022-09-18T17:46:26.969Z,98480.44
2022-09-18T17:49:01.343Z,98484.94
2022-09-18T17:51:33.469Z,98479.25
2022-09-18T17:54:07.369Z,98482.00
2022-09-18T17:56:41.151Z,98479.41
2022-09-18T17:59:14.453Z,98483.09
2022-09-18T18:01:50.065Z,98481.83
2022-09-18T18:04:22.971Z,98474.77
2022-09-18T18:06:55.985Z,98475.24
2022-09-18T18:09:30.588Z,98471.72
2022-09-18T18:12:05.457Z,98475.35
2022-09-18T18:14:37.453Z,98480.29
2022-09-18T18:17:10.831Z,98474.56
2022-09-18T18:19:44.233Z,98476.91
2022-09-18T18:22:17.461Z,98484.50
2022-09-18T18:24:51.266Z,98497.94
2022-09-18T18:27:24.602Z,98498.47
2022-09-18T18:29:57.859Z,98506.06
2022-09-18T18:32:32.969Z,98515.39
2022-09-18T18:35:06.979Z,98512.77
2022-09-18T18:37:40.466Z,98510.60
2022-09-18T18:40:14.698Z,98507.94
2022-09-18T18:42:47.929Z,98513.77
2022-09-18T18:45:22.687Z,98520.89
2022-09-18T18:47:58.799Z,98513.87
2022-09-18T18:50:33.636Z,98513.60
2022-09-18T18:53:08.001Z,98519.86
2022-09-18T18:55:43.167Z,98517.80
2022-09-18T18:58:17.767Z,98516.13
2022-09-18T19:00:50.859Z,98519.39
2022-09-18T19:03:24.042Z,98526.54
2022-09-18T19:05:57.827Z,98530.66
2022-09-18T19:08:31.653Z,98527.59
2022-09-18T19:11:05.512Z,98534.34
2022-09-18T19:13:45.144Z,98535.80
2022-09-18T19:16:19.802Z,98537.27
2022-09-18T19:18:59.393Z,98536.06
2022-09-18T19:21:32.330Z,98554.80
2022-09-18T19:24:05.906Z,98561.60
2022-09-18T19:26:41.176Z,98558.59
2022-09-18T19:29:16.980Z,98561.82
2022-09-18T19:31:51.147Z,98549.06
2022-09-18T19:34:24.231Z,98559.84
2022-09-18T19:36:58.189Z,98562.60
2022-09-18T19:39:30.961Z,98563.16
2022-09-18T19:42:14.991Z,98569.47
2022-09-18T19:44:56.380Z,98582.84
2022-09-18T19:47:33.100Z,98585.59
2022-09-18T19:50:07.720Z,98592.33
2022-09-18T19:52:43.903Z,98595.52
2022-09-18T19:55:21.006Z,98599.13
2022-09-18T19:57:59.593Z,98600.09
2022-09-18T20:00:32.567Z,98608.14
2022-09-18T20:03:05.384Z,98602.42
2022-09-18T20:05:43.377Z,98597.64
2022-09-18T20:08:17.357Z,98611.85
2022-09-18T20:10:50.548Z,98624.78
2022-09-18T20:13:23.972Z,98621.32
2022-09-18T20:16:06.444Z,98616.95
2022-09-18T20:18:40.732Z,98644.44
2022-09-18T20:21:16.762Z,98649.38
2022-09-18T20:23:49.918Z,98632.58
2022-09-18T20:26:22.606Z,98648.12
2022-09-18T20:28:55.540Z,98653.47
2022-09-18T20:31:28.252Z,98657.48
2022-09-18T20:34:02.717Z,98662.83
2022-09-18T20:36:35.984Z,98656.67
2022-09-18T20:39:08.921Z,98667.30
2022-09-18T20:41:42.238Z,98678.84
2022-09-18T20:44:15.671Z,98692.60
2022-09-18T20:46:50.121Z,98697.09
2022-09-18T20:49:25.095Z,98695.39
2022-09-18T20:51:58.525Z,98710.05
2022-09-18T20:54:31.756Z,98703.92
2022-09-18T20:57:04.595Z,98714.58
2022-09-18T20:59:39.494Z,98708.90
2022-09-18T21:02:14.132Z,98713.34
2022-09-18T21:04:50.142Z,98708.08
2022-09-18T21:07:24.690Z,98710.36
2022-09-18T21:09:58.891Z,98712.19
2022-09-18T21:12:33.449Z,98713.92
2022-09-18T21:15:14.083Z,98729.44
2022-09-18T21:17:48.449Z,98733.87
2022-09-18T21:20:21.806Z,98729.96
2022-09-18T21:23:12.097Z,98739.69
2022-09-18T21:25:44.958Z,98737.98
2022-09-18T21:28:17.746Z,98745.97
2022-09-18T21:30:50.580Z,98747.78
2022-09-18T21:33:24.716Z,98754.45
2022-09-18T21:35:57.451Z,98757.14
2022-09-18T21:38:31.132Z,98762.50
2022-09-18T21:41:10.234Z,98773.99
2022-09-18T21:43:44.909Z,98782.41
2022-09-18T21:46:20.601Z,98774.48
2022-09-18T21:48:54.602Z,98789.50
2022-09-18T21:51:27.232Z,98797.89
2022-09-18T21:54:00.254Z,98803.19
2022-09-18T21:56:34.054Z,98817.72
2022-09-18T21:59:08.440Z,98811.97
2022-09-18T22:01:43.056Z,98827.83
2022-09-18T22:04:15.820Z,98822.98
2022-09-18T22:06:50.817Z,98828.22
2022-09-18T22:09:37.824Z,98831.73
2022-09-18T22:12:13.105Z,98840.94
2022-09-18T22:14:46.151Z,98850.59
2022-09-18T22:17:19.170Z,98855.38
2022-09-18T22:19:53.046Z,98856.64
2022-09-18T22:22:27.154Z,98855.73
2022-09-18T22:24:59.979Z,98874.14
2022-09-18T22:27:32.827Z,98877.62
2022-09-18T22:30:06.395Z,98882.36
2022-09-18T22:32:39.232Z,98880.00
2022-09-18T22:35:12.461Z,98897.06
2022-09-18T22:37:45.052Z,98905.29
2022-09-18T22:40:18.017Z,98912.66
2022-09-18T22:42:50.960Z,98917.42
2022-09-18T22:45:23.742Z,98933.09
2022-09-18T22:47:56.627Z,98941.73
2022-09-18T22:50:29.311Z,98943.39
2022-09-18T22:53:02.283Z,98936.22
2022-09-18T22:55:35.811Z,98948.33
2022-09-18T22:58:08.534Z,98956.14
2022-09-18T23:00:41.210Z,98966.05
2022-09-18T23:03:13.868Z,98957.10
2022-09-18T23:05:47.336Z,98956.16
2022-09-18T23:08:20.536Z,98958.25
2022-09-18T23:10:54.977Z,98975.73
2022-09-18T23:13:27.484Z,98997.96
2022-09-18T23:16:06.327Z,98996.38
2022-09-18T23:18:40.355Z,99008.84
2022-09-18T23:21:14.723Z,99001.45
2022-09-18T23:23:48.527Z,99005.13
2022-09-18T23:26:25.963Z,99014.91
2022-09-18T23:29:00.355Z,99017.37
2022-09-18T23:31:36.818Z,99029.65
2022-09-18T23:34:14.124Z,99039.66
2022-09-18T23:36:50.196Z,99050.52
2022-09-18T23:39:28.841Z,99051.23
2022-09-18T23:42:03.018Z,99050.08
2022-09-18T23:44:35.985Z,99066.92
2022-09-18T23:47:08.891Z,99069.00
2022-09-18T23:49:41.596Z,99071.95
2022-09-18T23:52:14.288Z,99068.75
2022-09-18T23:54:47.156Z,99076.12
2022-09-18T23:57:19.821Z,99069.52
2022-09-18T23:59:53.427Z,99070.20
